ROST FLYPLASS current weather conditions

sailwx.info

Wind from 070 at 7 knots

Air temperature 14.0° C
Dewpoint 13.0° C

Last reported at 2015-Aug-27 17:50 UTC.
Time now 2015-Aug-28 02:19 UTC

Location: N 67°31' E 012°06'.
View on Google Maps.

See reports from other nearby stations

  
Tides and Currents Weather Stations Pressure Air Temp Water Temp Dewpoint Dewpoint Depression Visibility Wind Speed Wind Dir Waves Ship Positions
date/time (UTC)wind fromknots sea level pressurealtimeterstation pressurevisibilityair tempwater tempwave heightnotes
2015-Aug-27 17:50 070 7 14.0
2015-Aug-27 17:20 070 8 14.0
2015-Aug-27 16:50 070 8 14.0
2015-Aug-27 15:50 070 6 14.0
2015-Aug-27 15:20 060 6 14.0
2015-Aug-27 14:20 090 5 14.0
2015-Aug-27 12:50 080 10 15.0
2015-Aug-27 11:50 080 12 15.0
2015-Aug-27 10:50 080 11 15.0
2015-Aug-27 10:20 080 11 14.0
2015-Aug-27 09:50 090 9 15.0
2015-Aug-27 06:50 090 8 16.0
2015-Aug-27 06:20 100 7 15.0
2015-Aug-27 05:50 090 7 15.0
2015-Aug-27 05:20 110 9 15.0
2015-Aug-27 04:50 110 8 14.0
2015-Aug-26 17:50 070 18 15.0
2015-Aug-26 17:20 070 16 14.0
2015-Aug-26 16:50 060 17 14.0
2015-Aug-26 15:20 060 18 15.0
2015-Aug-26 14:50 060 18 15.0
2015-Aug-26 14:20 060 18 15.0
2015-Aug-26 13:50 060 17 14.0
2015-Aug-26 12:50 050 14 14.0
2015-Aug-26 09:50 050 16 14.0
2015-Aug-26 06:50 050 18 13.0
2015-Aug-26 06:20 050 16 13.0
2015-Aug-26 05:50 050 16 14.0
2015-Aug-26 05:20 040 15 13.0
2015-Aug-26 04:50 040 13 13.0